createdAt,value
2023-03-21T00:00:43.899Z,14.25
2023-03-21T00:03:10.358Z,15.38
2023-03-21T00:05:37.072Z,15.20
2023-03-21T00:08:03.545Z,15.27
2023-03-21T00:10:40.553Z,15.55
2023-03-21T00:13:13.435Z,15.07
2023-03-21T00:16:01.909Z,15.60
2023-03-21T00:18:30.689Z,14.57
2023-03-21T00:21:22.122Z,16.52
2023-03-21T00:23:44.837Z,13.62
2023-03-21T00:26:11.388Z,16.17
2023-03-21T00:28:37.706Z,15.07
2023-03-21T00:31:04.133Z,16.60
2023-03-21T00:33:30.519Z,23.25
2023-03-21T00:36:02.488Z,19.27
2023-03-21T00:38:31.400Z,17.83
2023-03-21T00:41:01.937Z,19.20
2023-03-21T00:43:31.597Z,18.05
2023-03-21T00:45:58.468Z,19.08
2023-03-21T00:48:24.838Z,18.87
2023-03-21T00:50:52.519Z,18.27
2023-03-21T00:53:18.841Z,17.90
2023-03-21T00:55:45.348Z,17.00
2023-03-21T00:58:11.674Z,16.90
2023-03-21T01:00:38.110Z,20.75
2023-03-21T01:03:21.395Z,21.77
2023-03-21T01:06:06.064Z,25.58
2023-03-21T01:08:44.654Z,26.87
2023-03-21T01:11:17.290Z,26.08
2023-03-21T01:13:52.820Z,29.02
2023-03-21T01:16:20.945Z,28.30
2023-03-21T01:18:47.266Z,31.00
2023-03-21T01:21:13.588Z,26.87
2023-03-21T01:23:39.906Z,27.13
2023-03-21T01:26:06.310Z,29.00
2023-03-21T01:28:32.737Z,31.42
2023-03-21T01:30:59.049Z,29.92
2023-03-21T01:33:25.467Z,30.73
2023-03-21T01:36:00.348Z,31.60
2023-03-21T01:38:32.797Z,31.23
2023-03-21T01:41:00.474Z,30.80
2023-03-21T01:43:26.840Z,29.25
2023-03-21T01:45:53.183Z,30.92
2023-03-21T01:48:19.572Z,31.23
2023-03-21T01:50:46.259Z,31.05
2023-03-21T01:53:13.020Z,30.65
2023-03-21T01:55:39.696Z,27.50
2023-03-21T01:58:07.458Z,26.92
2023-03-21T02:00:33.981Z,29.35
2023-03-21T02:03:11.730Z,29.87
2023-03-21T02:05:40.370Z,28.95
2023-03-21T02:08:06.686Z,26.75
2023-03-21T02:10:33.011Z,28.75
2023-03-21T02:12:59.360Z,27.42
2023-03-21T02:15:26.550Z,29.05
2023-03-21T02:17:52.849Z,30.48
2023-03-21T02:20:22.222Z,29.33
2023-03-21T02:22:48.760Z,30.12
2023-03-21T02:25:21.895Z,30.12
2023-03-21T02:27:48.863Z,29.20
2023-03-21T02:30:26.438Z,26.80
2023-03-21T02:32:54.846Z,28.75
2023-03-21T02:35:21.244Z,28.70
2023-03-21T02:37:58.280Z,29.30
2023-03-21T02:40:27.176Z,28.67
2023-03-21T02:43:00.010Z,29.17
2023-03-21T02:45:27.386Z,30.70
2023-03-21T02:47:53.801Z,31.40
2023-03-21T02:50:20.150Z,30.10
2023-03-21T02:52:46.461Z,28.98
2023-03-21T02:55:14.418Z,27.83
2023-03-21T02:57:43.397Z,26.02
2023-03-21T03:00:16.481Z,25.37
2023-03-21T03:02:43.764Z,23.40
2023-03-21T03:05:20.483Z,27.05
2023-03-21T03:07:47.425Z,27.00
2023-03-21T03:10:13.817Z,25.90
2023-03-21T03:12:40.139Z,28.30
2023-03-21T03:15:06.496Z,27.45
2023-03-21T03:17:32.844Z,30.50
2023-03-21T03:20:04.280Z,26.42
2023-03-21T03:22:33.607Z,28.27
2023-03-21T03:25:04.797Z,30.20
2023-03-21T03:27:39.060Z,28.98
2023-03-21T03:30:05.396Z,29.10
2023-03-21T03:32:31.742Z,27.35
2023-03-21T03:34:58.033Z,28.87
2023-03-21T03:37:26.412Z,26.45
2023-03-21T03:39:53.007Z,29.63
2023-03-21T03:42:27.987Z,28.15
2023-03-21T03:44:55.339Z,28.17
2023-03-21T03:47:32.311Z,28.65
2023-03-21T03:50:01.196Z,26.58
2023-03-21T03:52:28.030Z,27.52
2023-03-21T03:54:54.348Z,31.27
2023-03-21T03:57:20.740Z,27.95
2023-03-21T03:59:47.069Z,28.83
2023-03-21T04:02:13.527Z,31.10
2023-03-21T04:04:39.928Z,29.35
2023-03-21T04:07:06.493Z,27.45
2023-03-21T04:09:43.662Z,28.87
2023-03-21T04:12:11.062Z,31.33
2023-03-21T04:14:44.473Z,27.92
2023-03-21T04:17:12.308Z,29.17
2023-03-21T04:19:38.633Z,31.60
2023-03-21T04:22:04.941Z,29.83
2023-03-21T04:24:33.969Z,29.85
2023-03-21T04:27:00.378Z,30.77
2023-03-21T04:29:29.961Z,28.70
2023-03-21T04:31:56.446Z,29.23
2023-03-21T04:34:24.178Z,31.17
2023-03-21T04:36:50.944Z,30.42
2023-03-21T04:39:17.282Z,29.83
2023-03-21T04:41:43.700Z,32.72
2023-03-21T04:44:10.134Z,30.62
2023-03-21T04:46:36.528Z,27.02
2023-03-21T04:49:02.961Z,31.33
2023-03-21T04:51:29.453Z,28.95
2023-03-21T04:53:57.678Z,30.10
2023-03-21T04:56:26.213Z,30.83
2023-03-21T04:58:52.529Z,32.72
2023-03-21T05:01:20.894Z,29.30
2023-03-21T05:03:47.373Z,29.00
2023-03-21T05:06:13.745Z,30.83
2023-03-21T05:08:40.065Z,33.15
2023-03-21T05:11:06.473Z,29.95
2023-03-21T05:13:32.852Z,30.12
2023-03-21T05:15:59.180Z,29.98
2023-03-21T05:18:26.262Z,31.00
2023-03-21T05:20:55.658Z,30.00
2023-03-21T05:23:21.985Z,31.98
2023-03-21T05:25:48.302Z,32.83
2023-03-21T05:28:18.257Z,31.87
2023-03-21T05:30:45.094Z,32.38
2023-03-21T05:33:11.446Z,32.03
2023-03-21T05:35:38.052Z,31.10
2023-03-21T05:38:04.512Z,30.12
2023-03-21T05:40:30.820Z,25.77
2023-03-21T05:42:57.128Z,22.25
2023-03-21T05:45:23.463Z,21.35
2023-03-21T05:47:49.885Z,19.27
2023-03-21T05:50:16.261Z,22.58
2023-03-21T05:52:42.646Z,24.98
2023-03-21T05:55:08.956Z,20.45
2023-03-21T05:57:39.298Z,20.83
2023-03-21T06:00:05.612Z,19.98
2023-03-21T06:02:32.019Z,20.08
2023-03-21T06:04:58.364Z,16.98
2023-03-21T06:07:24.677Z,16.62
2023-03-21T06:09:51.072Z,17.87
2023-03-21T06:12:17.402Z,13.00
2023-03-21T06:14:43.712Z,15.52
2023-03-21T06:17:10.064Z,15.70
2023-03-21T06:19:36.394Z,12.43
2023-03-21T06:22:02.781Z,12.65
2023-03-21T06:24:29.115Z,13.52
2023-03-21T06:26:56.204Z,12.65
2023-03-21T06:29:22.599Z,10.85
2023-03-21T06:31:48.961Z,10.68
2023-03-21T06:34:15.502Z,9.38
2023-03-21T06:36:44.955Z,11.50
2023-03-21T06:39:11.326Z,10.20
2023-03-21T06:41:37.641Z,11.05
2023-03-21T06:44:03.976Z,13.30
2023-03-21T06:46:30.359Z,13.05
2023-03-21T06:48:56.724Z,10.05
2023-03-21T06:51:23.041Z,12.35
2023-03-21T06:53:49.381Z,11.57
2023-03-21T06:56:15.721Z,11.45
2023-03-21T06:58:42.051Z,9.57
2023-03-21T07:01:08.477Z,9.80
2023-03-21T07:03:35.011Z,11.52
2023-03-21T07:06:01.479Z,9.63
2023-03-21T07:08:27.797Z,11.55
2023-03-21T07:10:54.288Z,9.55
2023-03-21T07:13:20.633Z,12.68
2023-03-21T07:15:46.987Z,13.43
2023-03-21T07:18:13.318Z,9.98
2023-03-21T07:20:39.678Z,10.43
2023-03-21T07:23:06.046Z,20.98
2023-03-21T07:25:32.449Z,33.40
2023-03-21T07:27:58.786Z,26.40
2023-03-21T07:30:25.433Z,14.25
2023-03-21T07:32:53.519Z,11.38
2023-03-21T07:35:19.870Z,10.48
2023-03-21T07:37:46.294Z,9.38
2023-03-21T07:40:13.385Z,13.75
2023-03-21T07:42:39.778Z,13.02
2023-03-21T07:45:06.170Z,10.93
2023-03-21T07:47:32.726Z,11.63
2023-03-21T07:49:59.040Z,12.25
2023-03-21T07:52:25.361Z,13.38
2023-03-21T07:54:51.717Z,11.50
2023-03-21T07:57:18.109Z,11.98
2023-03-21T07:59:44.414Z,14.98
2023-03-21T08:02:10.849Z,10.88
2023-03-21T08:04:37.263Z,11.00
2023-03-21T08:07:03.628Z,10.60
2023-03-21T08:09:31.152Z,8.77
2023-03-21T08:11:57.623Z,9.52
2023-03-21T08:14:24.042Z,10.55
2023-03-21T08:16:50.539Z,11.32
2023-03-21T08:19:18.856Z,10.30
2023-03-21T08:21:45.267Z,13.75
2023-03-21T08:24:11.603Z,13.82
2023-03-21T08:26:38.341Z,9.75
2023-03-21T08:29:04.726Z,10.77
2023-03-21T08:31:31.063Z,12.05
2023-03-21T08:33:57.378Z,9.68
2023-03-21T08:36:23.761Z,10.10
2023-03-21T08:38:54.258Z,14.15
2023-03-21T08:41:22.177Z,10.07
2023-03-21T08:43:48.525Z,12.25
2023-03-21T08:46:14.891Z,14.13
2023-03-21T08:48:41.356Z,10.70
2023-03-21T08:51:07.716Z,13.30
2023-03-21T08:53:34.076Z,10.18
2023-03-21T08:56:00.457Z,9.30
2023-03-21T08:58:26.786Z,9.20
2023-03-21T09:00:53.284Z,11.65
2023-03-21T09:03:20.289Z,10.75
2023-03-21T09:05:46.727Z,7.65
2023-03-21T09:08:16.266Z,12.70
2023-03-21T09:10:42.572Z,13.57
2023-03-21T09:13:09.091Z,8.95
2023-03-21T09:15:35.611Z,9.13
2023-03-21T09:18:13.473Z,11.18
2023-03-21T09:20:40.468Z,11.32
2023-03-21T09:23:06.998Z,9.93
2023-03-21T09:25:33.569Z,7.82
2023-03-21T09:28:00.295Z,8.07
2023-03-21T09:30:27.285Z,9.02
2023-03-21T09:32:55.930Z,8.25
2023-03-21T09:35:22.816Z,8.38
2023-03-21T09:37:50.076Z,7.65
2023-03-21T09:40:16.499Z,9.23
2023-03-21T09:42:43.334Z,10.18
2023-03-21T09:45:10.140Z,10.25
2023-03-21T09:47:37.822Z,8.45
2023-03-21T09:50:14.017Z,9.82
2023-03-21T09:52:41.660Z,8.70
2023-03-21T09:55:19.007Z,8.07
2023-03-21T09:57:45.679Z,6.65
2023-03-21T10:00:16.613Z,6.82
2023-03-21T10:02:47.216Z,7.10
2023-03-21T10:05:14.339Z,6.93
2023-03-21T10:07:41.865Z,5.87
2023-03-21T10:10:08.217Z,5.55
2023-03-21T10:12:34.695Z,7.55
2023-03-21T10:15:01.061Z,5.82
2023-03-21T10:17:27.456Z,7.35
2023-03-21T10:19:54.617Z,5.93
2023-03-21T10:22:21.031Z,7.12
2023-03-21T10:24:47.368Z,8.10
2023-03-21T10:27:14.788Z,6.20
2023-03-21T10:29:42.383Z,6.65
2023-03-21T10:32:08.757Z,5.20
2023-03-21T10:34:35.371Z,5.20
2023-03-21T10:37:01.911Z,6.53
2023-03-21T10:39:28.256Z,4.87
2023-03-21T10:41:54.587Z,4.78
2023-03-21T10:44:21.042Z,6.37
2023-03-21T10:46:47.526Z,4.70
2023-03-21T10:49:13.978Z,5.80
2023-03-21T10:51:40.323Z,5.90
2023-03-21T10:54:06.754Z,4.97
2023-03-21T10:56:33.110Z,4.45
2023-03-21T10:58:59.548Z,6.50
2023-03-21T11:01:26.185Z,4.43
2023-03-21T11:03:54.043Z,5.03
2023-03-21T11:06:20.648Z,4.80
2023-03-21T11:08:46.959Z,4.10
2023-03-21T11:11:13.388Z,4.35
2023-03-21T11:13:39.781Z,4.25
2023-03-21T11:16:06.286Z,4.90
2023-03-21T11:18:35.685Z,5.05
2023-03-21T11:21:02.033Z,4.87
2023-03-21T11:23:28.509Z,3.97
2023-03-21T11:25:54.849Z,4.00
2023-03-21T11:28:21.185Z,3.80
2023-03-21T11:30:47.549Z,3.85
2023-03-21T11:33:13.872Z,3.22
2023-03-21T11:35:40.636Z,3.97
2023-03-21T11:38:07.514Z,3.50
2023-03-21T11:40:33.826Z,3.97
2023-03-21T11:43:00.647Z,4.72
2023-03-21T11:45:27.000Z,3.62
2023-03-21T11:47:53.385Z,4.90
2023-03-21T11:50:19.824Z,3.05
2023-03-21T11:52:46.341Z,4.75
2023-03-21T11:55:12.707Z,4.07
2023-03-21T11:57:39.033Z,3.95
2023-03-21T12:00:10.775Z,4.62
2023-03-21T12:02:37.574Z,4.47
2023-03-21T12:05:04.138Z,5.03
2023-03-21T12:07:30.506Z,3.90
2023-03-21T12:09:56.856Z,3.53
2023-03-21T12:12:33.015Z,3.50
2023-03-21T12:15:02.796Z,5.25
2023-03-21T12:17:29.104Z,5.68
2023-03-21T12:19:55.576Z,4.22
2023-03-21T12:22:21.877Z,3.20
2023-03-21T12:24:48.185Z,2.85
2023-03-21T12:27:14.573Z,3.37
2023-03-21T12:29:40.914Z,2.58
2023-03-21T12:32:07.256Z,4.22
2023-03-21T12:34:33.569Z,3.83
2023-03-21T12:37:00.401Z,3.45
2023-03-21T12:39:26.794Z,3.87
2023-03-21T12:41:53.122Z,3.78
2023-03-21T12:44:19.457Z,3.87
2023-03-21T12:46:46.182Z,4.60
2023-03-21T12:49:12.577Z,3.20
2023-03-21T12:51:38.984Z,3.53
2023-03-21T12:54:05.561Z,4.72
2023-03-21T12:56:32.143Z,3.22
2023-03-21T12:58:58.490Z,3.85
2023-03-21T13:01:24.887Z,3.22
2023-03-21T13:03:51.596Z,4.10
2023-03-21T13:06:18.490Z,4.25
2023-03-21T13:08:45.017Z,3.17
2023-03-21T13:11:11.323Z,4.50
2023-03-21T13:13:37.686Z,3.80
2023-03-21T13:16:04.079Z,4.30
2023-03-21T13:18:30.483Z,3.58
2023-03-21T13:20:56.822Z,4.32
2023-03-21T13:23:23.157Z,3.90
2023-03-21T13:25:49.481Z,4.20
2023-03-21T13:28:15.801Z,4.43
2023-03-21T13:30:42.531Z,5.70
2023-03-21T13:33:09.027Z,4.82
2023-03-21T13:35:37.768Z,3.30
2023-03-21T13:38:04.332Z,3.03
2023-03-21T13:40:30.677Z,3.08
2023-03-21T13:42:59.283Z,5.05
2023-03-21T13:45:25.717Z,4.18
2023-03-21T13:47:52.628Z,3.22
2023-03-21T13:50:19.074Z,4.75
2023-03-21T13:52:45.662Z,3.33
2023-03-21T13:55:12.016Z,4.12
2023-03-21T13:57:38.807Z,4.00
2023-03-21T14:00:06.244Z,4.12
2023-03-21T14:02:32.552Z,3.67
2023-03-21T14:05:06.961Z,3.28
2023-03-21T14:07:33.643Z,3.12
2023-03-21T14:10:00.193Z,3.22
2023-03-21T14:12:27.114Z,3.00
2023-03-21T14:14:54.170Z,2.85
2023-03-21T14:17:20.655Z,3.85
2023-03-21T14:19:46.970Z,3.30
2023-03-21T14:22:13.293Z,4.43
2023-03-21T14:24:41.368Z,5.10
2023-03-21T14:27:07.697Z,4.03
2023-03-21T14:29:34.132Z,4.22
2023-03-21T14:32:00.441Z,5.82
2023-03-21T14:34:27.262Z,2.90
2023-03-21T14:37:00.919Z,3.30
2023-03-21T14:39:27.262Z,4.53
2023-03-21T14:41:53.656Z,3.72
2023-03-21T14:44:26.375Z,3.15
2023-03-21T14:46:52.721Z,4.57
2023-03-21T14:49:19.014Z,4.22
2023-03-21T14:51:47.005Z,3.70
2023-03-21T14:54:13.315Z,5.20
2023-03-21T14:56:39.705Z,3.50
2023-03-21T14:59:06.009Z,4.40
2023-03-21T15:01:33.294Z,4.68
2023-03-21T15:04:00.578Z,3.30
2023-03-21T15:06:27.537Z,5.72
2023-03-21T15:08:53.844Z,3.87
2023-03-21T15:11:20.160Z,4.55
2023-03-21T15:13:46.525Z,3.87
2023-03-21T15:16:15.000Z,2.65
2023-03-21T15:18:41.574Z,6.00
2023-03-21T15:21:07.888Z,2.62
2023-03-21T15:23:34.228Z,5.15
2023-03-21T15:26:00.640Z,2.90
2023-03-21T15:28:26.982Z,3.70
2023-03-21T15:30:53.638Z,2.87
2023-03-21T15:33:19.998Z,2.65
2023-03-21T15:35:46.966Z,4.68
2023-03-21T15:38:13.338Z,3.17
2023-03-21T15:40:39.961Z,4.57
2023-03-21T15:43:07.457Z,2.83
2023-03-21T15:45:33.787Z,4.20
2023-03-21T15:48:00.695Z,6.93
2023-03-21T15:50:27.384Z,3.08
2023-03-21T15:52:53.795Z,3.50
2023-03-21T15:55:22.364Z,2.37
2023-03-21T15:57:50.140Z,4.25
2023-03-21T16:00:18.435Z,3.95
2023-03-21T16:02:44.789Z,2.78
2023-03-21T16:05:13.317Z,3.22
2023-03-21T16:07:42.737Z,3.65
2023-03-21T16:10:09.073Z,3.80
2023-03-21T16:12:35.615Z,3.45
2023-03-21T16:15:02.026Z,3.42
2023-03-21T16:17:28.475Z,3.80
2023-03-21T16:19:55.376Z,3.00
2023-03-21T16:22:22.381Z,3.33
2023-03-21T16:24:48.759Z,5.10
2023-03-21T16:27:15.108Z,3.15
2023-03-21T16:29:41.444Z,2.80
2023-03-21T16:32:07.892Z,3.08
2023-03-21T16:34:34.251Z,2.78
2023-03-21T16:37:00.584Z,4.82
2023-03-21T16:39:27.100Z,4.30
2023-03-21T16:41:53.405Z,3.95
2023-03-21T16:44:19.709Z,3.47
2023-03-21T16:46:47.467Z,4.05
2023-03-21T16:49:15.087Z,2.67
2023-03-21T16:51:41.384Z,6.25
2023-03-21T16:54:07.703Z,2.60
2023-03-21T16:56:34.074Z,3.25
2023-03-21T16:59:00.369Z,5.10
2023-03-21T17:01:27.586Z,2.80
2023-03-21T17:03:54.073Z,3.55
2023-03-21T17:06:20.461Z,8.48
2023-03-21T17:08:46.769Z,3.50
2023-03-21T17:11:13.135Z,3.53
2023-03-21T17:13:39.499Z,4.65
2023-03-21T17:16:06.681Z,5.18
2023-03-21T17:18:32.982Z,6.25
2023-03-21T17:20:59.299Z,3.95
2023-03-21T17:23:25.644Z,8.10
2023-03-21T17:25:52.122Z,3.80
2023-03-21T17:28:18.480Z,6.47
2023-03-21T17:30:44.878Z,4.87
2023-03-21T17:33:11.260Z,4.07
2023-03-21T17:35:37.623Z,6.20
2023-03-21T17:38:04.116Z,6.03
2023-03-21T17:40:30.443Z,3.65
2023-03-21T17:42:56.777Z,3.80
2023-03-21T17:45:23.150Z,3.42
2023-03-21T17:47:49.489Z,3.47
2023-03-21T17:50:16.470Z,5.40
2023-03-21T17:52:42.785Z,4.20
2023-03-21T17:55:09.133Z,3.75
2023-03-21T17:57:36.487Z,3.55
2023-03-21T18:00:05.251Z,4.00
2023-03-21T18:02:31.689Z,4.12
2023-03-21T18:04:58.069Z,4.43
2023-03-21T18:07:54.499Z,4.90
2023-03-21T18:10:10.794Z,4.62
2023-03-21T18:12:37.416Z,5.62
2023-03-21T18:15:04.100Z,3.78
2023-03-21T18:17:30.531Z,6.90
2023-03-21T18:19:57.495Z,4.60
2023-03-21T18:22:24.531Z,5.75
2023-03-21T18:24:51.154Z,7.37
2023-03-21T18:27:18.301Z,6.03
2023-03-21T18:30:22.141Z,6.32
2023-03-21T18:32:31.151Z,4.78
2023-03-21T18:35:00.579Z,5.95
2023-03-21T18:37:27.619Z,4.70
2023-03-21T18:39:53.943Z,6.57
2023-03-21T18:42:23.212Z,5.35
2023-03-21T18:44:50.194Z,4.70
2023-03-21T18:47:16.875Z,4.87
2023-03-21T18:52:29.678Z,4.90
2023-03-21T18:54:56.043Z,5.25
2023-03-21T18:57:39.093Z,4.45
2023-03-21T19:00:13.070Z,4.97
2023-03-21T19:02:45.521Z,5.03
2023-03-21T19:05:13.182Z,5.28
2023-03-21T19:07:39.714Z,5.20
2023-03-21T19:10:17.545Z,4.80
2023-03-21T19:12:44.740Z,5.22
2023-03-21T19:15:11.562Z,5.90
2023-03-21T19:18:24.989Z,6.40
2023-03-21T19:20:24.593Z,6.15
2023-03-21T19:22:51.084Z,6.35
2023-03-21T19:25:17.431Z,6.25
2023-03-21T19:27:43.760Z,6.97
2023-03-21T19:30:14.814Z,5.53
2023-03-21T19:32:42.160Z,5.60
2023-03-21T19:35:08.524Z,6.93
2023-03-21T19:37:36.415Z,5.87
2023-03-21T19:40:03.693Z,7.30
2023-03-21T19:42:30.876Z,5.78
2023-03-21T19:44:57.333Z,7.62
2023-03-21T19:47:23.680Z,7.35
2023-03-21T19:52:40.519Z,6.87
2023-03-21T19:55:06.987Z,6.32
2023-03-21T19:57:34.809Z,8.15
2023-03-21T20:00:01.483Z,6.32
2023-03-21T20:02:37.340Z,8.65
2023-03-21T20:05:03.864Z,6.32
2023-03-21T20:07:32.751Z,12.15
2023-03-21T20:09:59.665Z,7.97
2023-03-21T20:12:26.073Z,9.05
2023-03-21T20:15:01.015Z,7.72
2023-03-21T20:17:35.895Z,10.68
2023-03-21T20:20:14.033Z,6.62
2023-03-21T20:25:28.489Z,7.07
2023-03-21T20:28:12.712Z,7.65
2023-03-21T20:30:41.563Z,7.85
2023-03-21T20:33:08.243Z,7.90
2023-03-21T20:36:22.972Z,7.47
2023-03-21T20:38:21.113Z,10.98
2023-03-21T20:40:48.138Z,7.60
2023-03-21T20:43:52.148Z,7.20
2023-03-21T20:46:01.126Z,8.77
2023-03-21T20:48:29.772Z,11.43
2023-03-21T20:51:01.200Z,7.72
2023-03-21T20:53:28.594Z,7.47
2023-03-21T20:55:54.955Z,9.45
2023-03-21T20:58:45.158Z,8.10
2023-03-21T21:01:14.387Z,7.82
2023-03-21T21:03:41.269Z,8.75
2023-03-21T21:06:07.821Z,10.93
2023-03-21T21:08:35.306Z,8.75
2023-03-21T21:11:50.161Z,11.30
2023-03-21T21:13:48.228Z,8.02
2023-03-21T21:16:14.639Z,7.75
2023-03-21T21:18:40.996Z,8.68
2023-03-21T21:21:07.338Z,9.40
2023-03-21T21:23:33.732Z,8.55
2023-03-21T21:26:01.274Z,8.07
2023-03-21T21:28:28.905Z,10.98
2023-03-21T21:31:01.303Z,10.68
2023-03-21T21:33:30.715Z,8.40
2023-03-21T21:35:57.198Z,12.80
2023-03-21T21:38:23.623Z,13.75
2023-03-21T21:40:49.944Z,9.43
2023-03-21T21:43:18.929Z,11.40
2023-03-21T21:45:45.247Z,13.60
2023-03-21T21:48:11.865Z,9.35
2023-03-21T21:50:38.448Z,9.88
2023-03-21T21:53:06.281Z,9.43
2023-03-21T21:55:32.714Z,9.10
2023-03-21T21:57:59.105Z,10.32
2023-03-21T22:00:25.496Z,9.55
2023-03-21T22:02:51.870Z,6.95
2023-03-21T22:05:19.086Z,10.43
2023-03-21T22:07:45.494Z,9.88
2023-03-21T22:10:12.194Z,7.87
2023-03-21T22:12:38.518Z,9.18
2023-03-21T22:15:04.902Z,7.32
2023-03-21T22:17:31.381Z,6.25
2023-03-21T22:20:05.482Z,6.82
2023-03-21T22:22:32.285Z,6.87
2023-03-21T22:24:58.620Z,12.90
2023-03-21T22:27:24.942Z,7.75
2023-03-21T22:29:51.361Z,6.50
2023-03-21T22:32:17.770Z,6.95
2023-03-21T22:34:44.090Z,7.72
2023-03-21T22:37:10.423Z,9.30
2023-03-21T22:39:37.581Z,12.30
2023-03-21T22:42:04.972Z,9.15
2023-03-21T22:44:34.919Z,8.30
2023-03-21T22:47:01.426Z,9.38
2023-03-21T22:49:27.981Z,8.10
2023-03-21T22:51:54.698Z,8.00
2023-03-21T22:54:21.055Z,8.63
2023-03-21T22:56:47.373Z,8.80
2023-03-21T22:59:13.692Z,9.30
2023-03-21T23:01:40.172Z,9.57
2023-03-21T23:04:06.596Z,8.75
2023-03-21T23:06:32.930Z,9.55
2023-03-21T23:08:59.241Z,9.15
2023-03-21T23:11:25.651Z,8.38
2023-03-21T23:14:06.766Z,10.30
2023-03-21T23:16:34.885Z,13.15
2023-03-21T23:19:02.297Z,10.50
2023-03-21T23:21:28.774Z,10.57
2023-03-21T23:23:55.101Z,9.77
2023-03-21T23:26:21.434Z,11.38
2023-03-21T23:28:48.260Z,9.40
2023-03-21T23:31:14.695Z,9.38
2023-03-21T23:33:41.062Z,10.55
2023-03-21T23:36:07.393Z,13.07
2023-03-21T23:38:33.711Z,10.52
2023-03-21T23:41:02.053Z,10.70
2023-03-21T23:43:29.870Z,10.35
2023-03-21T23:45:56.198Z,11.48
2023-03-21T23:48:22.670Z,9.80
2023-03-21T23:50:49.026Z,9.45
2023-03-21T23:53:15.664Z,11.07
2023-03-21T23:55:42.018Z,11.68
2023-03-21T23:58:09.197Z,10.43
